Pagrindinis puslapis
METAR-TAF:

METAR-TAF

Oro uostai :

Halmstadas, Švedija

platuma: 56-41N, ilguma: 012-50E, Aukštis: 30 m

Dabartinis oras

Ataskaita buvo paskelbta 31 minutes, ne 14:50 UTC
Vėjas 18 kt iš Vakarų/Pietvakarių
Temperatūra 7°C
Drėgmė 76%
Slėgis 1010 hPa
Matomumas 10 km arba daugiau
Apsiniaukę ne aukštis 3600 ft

METAR: ESMT 211450Z 24018KT 9999 OVC036 07/03 Q1010

Laikas: 16:21 (15:21 UTC)

Prognozė

Ataskaita buvo paskelbta 1 valandą ir 10 minutes, ne 14:11 UTC
Prognozė galioja nuo 21 metu 15 UTC su 21 metu 22 UTC
Vėjas 18 kt iš Vakarų/Pietvakarių
Matomumas 10 km arba daugiau
Su prošvaistėmis ne aukštis 2000 ft
Laikinai
nuo 21 metu 15 UTC su 21 metu 22 UTC
Vėjas 18 kt iš Pietvakarių su gūsio iki 30 kt
Tapsmas
nuo 21 metu 19 UTC su 21 metu 22 UTC
Su prošvaistėmis ne aukštis 800 ft

TAF: ESMT 211411Z 2115/2122 25018KT 9999 BKN020 TEMPO 2115/2122 23018G30KT BECMG 2119/2122 BKN008

Orai ataskaitas ir orų prognozės (METAR, TAF).

turimą stotys yra geltonos ir raudonos taškus žemėlapyje.

Perkelti pele per norėdami pamatyti stoties vardą.

Tada spustelėkite, norėdami matyti oro stebėjimo ir prognozės.

Norėdami pakeisti žemėlapį: spustelėkite ant žalios mygtukų su juodo kryžiaus žemyn,; žalią mygtuką su brūkšneliu, jei norite nutolinti; arba žalių rodyklių gretimoms žemėlapius.


METAR-TAF: